sensor_id;sensor_type;location;lat;lon;timestamp;temperature;humidity
36690;DHT22;22676;51.120;3.702;2023-09-30T06:01:55;23.40;56.90
36690;DHT22;22676;51.120;3.702;2023-09-30T06:04:21;23.40;57.00
36690;DHT22;22676;51.120;3.702;2023-09-30T06:06:49;23.40;56.90
36690;DHT22;22676;51.120;3.702;2023-09-30T06:09:16;23.40;56.80
36690;DHT22;22676;51.120;3.702;2023-09-30T06:11:41;23.30;57.00
36690;DHT22;22676;51.120;3.702;2023-09-30T06:14:07;23.20;57.20
36690;DHT22;22676;51.120;3.702;2023-09-30T06:16:33;23.20;57.30
36690;DHT22;22676;51.120;3.702;2023-09-30T06:19:00;23.10;57.40
36690;DHT22;22676;51.120;3.702;2023-09-30T06:21:25;23.10;57.40
36690;DHT22;22676;51.120;3.702;2023-09-30T06:23:54;23.10;57.50
36690;DHT22;22676;51.120;3.702;2023-09-30T06:26:21;23.10;57.40
36690;DHT22;22676;51.120;3.702;2023-09-30T06:28:46;23.10;57.30
36690;DHT22;22676;51.120;3.702;2023-09-30T06:31:13;23.10;57.30
36690;DHT22;22676;51.120;3.702;2023-09-30T06:33:39;23.10;57.30
36690;DHT22;22676;51.120;3.702;2023-09-30T06:36:12;23.10;57.40
36690;DHT22;22676;51.120;3.702;2023-09-30T06:38:41;23.10;57.40
36690;DHT22;22676;51.120;3.702;2023-09-30T06:41:16;23.10;57.50
36690;DHT22;22676;51.120;3.702;2023-09-30T06:43:42;23.10;57.40
36690;DHT22;22676;51.120;3.702;2023-09-30T06:46:09;23.10;57.50
36690;DHT22;22676;51.120;3.702;2023-09-30T06:48:35;23.10;57.50
36690;DHT22;22676;51.120;3.702;2023-09-30T06:51:01;23.10;57.70
36690;DHT22;22676;51.120;3.702;2023-09-30T06:53:27;23.10;57.70
36690;DHT22;22676;51.120;3.702;2023-09-30T06:55:53;23.20;57.80
36690;DHT22;22676;51.120;3.702;2023-09-30T06:58:19;23.20;57.90
36690;DHT22;22676;51.120;3.702;2023-09-30T07:00:52;23.20;57.90
36690;DHT22;22676;51.120;3.702;2023-09-30T07:03:21;23.20;57.70
36690;DHT22;22676;51.120;3.702;2023-09-30T07:05:46;23.20;57.80
36690;DHT22;22676;51.120;3.702;2023-09-30T07:08:18;23.10;57.70
36690;DHT22;22676;51.120;3.702;2023-09-30T07:10:45;23.10;57.90
36690;DHT22;22676;51.120;3.702;2023-09-30T07:13:18;23.10;57.90
36690;DHT22;22676;51.120;3.702;2023-09-30T07:15:44;23.10;57.70
36690;DHT22;22676;51.120;3.702;2023-09-30T07:18:09;23.20;57.70
36690;DHT22;22676;51.120;3.702;2023-09-30T07:20:36;23.20;57.80
36690;DHT22;22676;51.120;3.702;2023-09-30T07:23:02;23.20;57.70
36690;DHT22;22676;51.120;3.702;2023-09-30T07:25:29;23.20;57.80
36690;DHT22;22676;51.120;3.702;2023-09-30T07:27:57;23.20;58.30
36690;DHT22;22676;51.120;3.702;2023-09-30T07:30:23;23.10;57.70
36690;DHT22;22676;51.120;3.702;2023-09-30T07:32:49;23.10;57.70
36690;DHT22;22676;51.120;3.702;2023-09-30T07:35:16;23.10;57.70
36690;DHT22;22676;51.120;3.702;2023-09-30T07:37:42;23.10;57.70
36690;DHT22;22676;51.120;3.702;2023-09-30T07:40:08;23.20;57.80
36690;DHT22;22676;51.120;3.702;2023-09-30T07:42:35;23.20;57.70
36690;DHT22;22676;51.120;3.702;2023-09-30T07:45:02;23.30;57.80
36690;DHT22;22676;51.120;3.702;2023-09-30T07:47:29;23.30;57.70
36690;DHT22;22676;51.120;3.702;2023-09-30T07:49:56;23.30;57.60
36690;DHT22;22676;51.120;3.702;2023-09-30T07:52:22;23.30;57.60
36690;DHT22;22676;51.120;3.702;2023-09-30T07:54:47;23.40;57.70
36690;DHT22;22676;51.120;3.702;2023-09-30T07:57:13;23.40;57.70
36690;DHT22;22676;51.120;3.702;2023-09-30T07:59:39;23.50;57.60
36690;DHT22;22676;51.120;3.702;2023-09-30T08:02:05;23.50;57.70
36690;DHT22;22676;51.120;3.702;2023-09-30T08:04:32;23.40;57.70
36690;DHT22;22676;51.120;3.702;2023-09-30T08:06:57;23.40;57.90
36690;DHT22;22676;51.120;3.702;2023-09-30T08:09:23;23.40;57.90
36690;DHT22;22676;51.120;3.702;2023-09-30T08:11:50;23.40;58.00
36690;DHT22;22676;51.120;3.702;2023-09-30T08:14:16;23.40;58.20
36690;DHT22;22676;51.120;3.702;2023-09-30T08:16:42;23.40;57.90
36690;DHT22;22676;51.120;3.702;2023-09-30T08:19:08;23.40;57.90
36690;DHT22;22676;51.120;3.702;2023-09-30T08:21:34;23.40;57.40
36690;DHT22;22676;51.120;3.702;2023-09-30T08:24:01;23.40;57.10
36690;DHT22;22676;51.120;3.702;2023-09-30T08:26:27;23.40;57.00
36690;DHT22;22676;51.120;3.702;2023-09-30T08:28:53;23.40;56.90
36690;DHT22;22676;51.120;3.702;2023-09-30T08:31:18;23.30;57.10
36690;DHT22;22676;51.120;3.702;2023-09-30T08:33:45;23.30;57.20
36690;DHT22;22676;51.120;3.702;2023-09-30T08:36:11;23.40;57.30
36690;DHT22;22676;51.120;3.702;2023-09-30T08:38:38;23.40;57.40
36690;DHT22;22676;51.120;3.702;2023-09-30T08:41:04;23.30;57.20
36690;DHT22;22676;51.120;3.702;2023-09-30T08:43:30;23.40;57.20
36690;DHT22;22676;51.120;3.702;2023-09-30T08:45:57;23.40;57.20
36690;DHT22;22676;51.120;3.702;2023-09-30T08:48:23;23.40;57.20
36690;DHT22;22676;51.120;3.702;2023-09-30T08:50:53;23.40;57.20
36690;DHT22;22676;51.120;3.702;2023-09-30T08:53:20;23.40;57.20
36690;DHT22;22676;51.120;3.702;2023-09-30T08:55:46;23.40;57.20
36690;DHT22;22676;51.120;3.702;2023-09-30T08:58:13;23.30;57.30
36690;DHT22;22676;51.120;3.702;2023-09-30T09:00:39;23.40;57.50
36690;DHT22;22676;51.120;3.702;2023-09-30T09:03:07;23.40;57.60
36690;DHT22;22676;51.120;3.702;2023-09-30T09:05:33;23.40;57.70
36690;DHT22;22676;51.120;3.702;2023-09-30T09:07:59;23.40;57.70
36690;DHT22;22676;51.120;3.702;2023-09-30T09:10:24;23.40;57.60
36690;DHT22;22676;51.120;3.702;2023-09-30T09:12:58;23.40;57.80
36690;DHT22;22676;51.120;3.702;2023-09-30T09:15:25;23.40;57.90
36690;DHT22;22676;51.120;3.702;2023-09-30T09:17:51;23.40;58.10
36690;DHT22;22676;51.120;3.702;2023-09-30T09:20:20;23.40;58.20
36690;DHT22;22676;51.120;3.702;2023-09-30T09:22:47;23.50;58.10
36690;DHT22;22676;51.120;3.702;2023-09-30T09:25:13;23.40;58.00
36690;DHT22;22676;51.120;3.702;2023-09-30T09:27:39;23.50;57.90
36690;DHT22;22676;51.120;3.702;2023-09-30T09:30:24;23.50;57.80
36690;DHT22;22676;51.120;3.702;2023-09-30T09:33:04;23.50;57.90
36690;DHT22;22676;51.120;3.702;2023-09-30T09:35:31;23.40;57.90
36690;DHT22;22676;51.120;3.702;2023-09-30T09:40:26;23.40;58.20
36690;DHT22;22676;51.120;3.702;2023-09-30T09:42:52;23.40;58.20
36690;DHT22;22676;51.120;3.702;2023-09-30T09:45:21;23.40;58.20
36690;DHT22;22676;51.120;3.702;2023-09-30T09:47:48;23.40;58.20
36690;DHT22;22676;51.120;3.702;2023-09-30T09:50:15;23.40;58.10
36690;DHT22;22676;51.120;3.702;2023-09-30T09:52:42;23.40;58.10
36690;DHT22;22676;51.120;3.702;2023-09-30T09:55:10;23.40;58.20
36690;DHT22;22676;51.120;3.702;2023-09-30T09:57:37;23.40;58.30
36690;DHT22;22676;51.120;3.702;2023-09-30T10:00:03;23.40;58.20
36690;DHT22;22676;51.120;3.702;2023-09-30T10:02:34;23.40;58.10
36690;DHT22;22676;51.120;3.702;2023-09-30T10:05:02;23.40;58.20
36690;DHT22;22676;51.120;3.702;2023-09-30T10:07:35;23.40;58.10
36690;DHT22;22676;51.120;3.702;2023-09-30T10:10:05;23.50;58.10
36690;DHT22;22676;51.120;3.702;2023-09-30T10:12:39;23.50;58.00
36690;DHT22;22676;51.120;3.702;2023-09-30T10:18:11;23.60;58.00
36690;DHT22;22676;51.120;3.702;2023-09-30T10:20:39;23.60;57.90
36690;DHT22;22676;51.120;3.702;2023-09-30T10:23:26;23.60;57.80
36690;DHT22;22676;51.120;3.702;2023-09-30T10:26:13;23.60;57.60
36690;DHT22;22676;51.120;3.702;2023-09-30T10:28:43;23.60;57.60
36690;DHT22;22676;51.120;3.702;2023-09-30T10:36:33;23.60;57.60
36690;DHT22;22676;51.120;3.702;2023-09-30T10:38:59;23.60;57.70
36690;DHT22;22676;51.120;3.702;2023-09-30T10:46:48;23.70;57.60
36690;DHT22;22676;51.120;3.702;2023-09-30T10:49:30;23.70;57.50
36690;DHT22;22676;51.120;3.702;2023-09-30T10:52:01;23.70;57.40
36690;DHT22;22676;51.120;3.702;2023-09-30T10:54:28;23.80;57.60
36690;DHT22;22676;51.120;3.702;2023-09-30T10:56:55;23.80;57.70
36690;DHT22;22676;51.120;3.702;2023-09-30T10:59:25;23.80;57.50
36690;DHT22;22676;51.120;3.702;2023-09-30T11:01:51;23.90;57.30
36690;DHT22;22676;51.120;3.702;2023-09-30T11:04:18;23.90;57.30
36690;DHT22;22676;51.120;3.702;2023-09-30T11:06:45;24.00;57.30
36690;DHT22;22676;51.120;3.702;2023-09-30T11:09:16;23.90;57.10
36690;DHT22;22676;51.120;3.702;2023-09-30T11:12:00;24.00;57.30
36690;DHT22;22676;51.120;3.702;2023-09-30T11:14:27;24.10;57.20
36690;DHT22;22676;51.120;3.702;2023-09-30T11:16:55;24.10;57.10
36690;DHT22;22676;51.120;3.702;2023-09-30T11:19:22;24.10;57.00
36690;DHT22;22676;51.120;3.702;2023-09-30T11:21:49;24.20;57.10
36690;DHT22;22676;51.120;3.702;2023-09-30T11:24:15;24.20;57.00
36690;DHT22;22676;51.120;3.702;2023-09-30T11:26:41;24.20;56.90
36690;DHT22;22676;51.120;3.702;2023-09-30T11:29:16;24.20;56.50
36690;DHT22;22676;51.120;3.702;2023-09-30T11:31:51;24.20;56.40
36690;DHT22;22676;51.120;3.702;2023-09-30T11:34:17;24.20;56.50
36690;DHT22;22676;51.120;3.702;2023-09-30T11:36:50;24.20;56.60
36690;DHT22;22676;51.120;3.702;2023-09-30T11:39:42;24.20;56.50
36690;DHT22;22676;51.120;3.702;2023-09-30T11:42:17;24.30;56.50
36690;DHT22;22676;51.120;3.702;2023-09-30T11:44:46;24.20;56.50
36690;DHT22;22676;51.120;3.702;2023-09-30T11:47:15;24.20;56.60
36690;DHT22;22676;51.120;3.702;2023-09-30T11:49:43;24.30;56.60
36690;DHT22;22676;51.120;3.702;2023-09-30T11:52:12;24.20;56.60
36690;DHT22;22676;51.120;3.702;2023-09-30T11:54:43;24.20;56.60
36690;DHT22;22676;51.120;3.702;2023-09-30T11:57:15;24.30;56.60
36690;DHT22;22676;51.120;3.702;2023-09-30T11:59:41;24.30;56.60
36690;DHT22;22676;51.120;3.702;2023-09-30T12:02:11;24.20;56.50
36690;DHT22;22676;51.120;3.702;2023-09-30T12:04:38;24.30;56.70
36690;DHT22;22676;51.120;3.702;2023-09-30T12:07:04;24.20;56.70
36690;DHT22;22676;51.120;3.702;2023-09-30T12:09:32;24.20;56.70
36690;DHT22;22676;51.120;3.702;2023-09-30T12:11:59;24.30;56.70
36690;DHT22;22676;51.120;3.702;2023-09-30T12:14:25;24.40;56.70
36690;DHT22;22676;51.120;3.702;2023-09-30T12:16:51;24.40;56.70
36690;DHT22;22676;51.120;3.702;2023-09-30T12:19:17;24.40;56.80
36690;DHT22;22676;51.120;3.702;2023-09-30T12:21:44;24.30;56.90
36690;DHT22;22676;51.120;3.702;2023-09-30T12:24:12;24.40;57.10
36690;DHT22;22676;51.120;3.702;2023-09-30T12:26:48;24.30;57.20
36690;DHT22;22676;51.120;3.702;2023-09-30T12:29:18;24.30;57.00
36690;DHT22;22676;51.120;3.702;2023-09-30T12:31:44;24.40;56.60
36690;DHT22;22676;51.120;3.702;2023-09-30T12:34:11;24.30;56.30
36690;DHT22;22676;51.120;3.702;2023-09-30T12:36:38;24.30;56.40
36690;DHT22;22676;51.120;3.702;2023-09-30T12:39:04;24.40;55.80
36690;DHT22;22676;51.120;3.702;2023-09-30T12:41:44;24.30;56.00
36690;DHT22;22676;51.120;3.702;2023-09-30T12:44:10;24.20;55.90
36690;DHT22;22676;51.120;3.702;2023-09-30T12:46:37;24.20;56.10
36690;DHT22;22676;51.120;3.702;2023-09-30T12:49:07;24.30;56.20
36690;DHT22;22676;51.120;3.702;2023-09-30T12:51:34;24.30;56.30
36690;DHT22;22676;51.120;3.702;2023-09-30T12:54:00;24.30;56.20
36690;DHT22;22676;51.120;3.702;2023-09-30T12:56:27;24.30;56.20
36690;DHT22;22676;51.120;3.702;2023-09-30T12:58:55;24.30;56.10
36690;DHT22;22676;51.120;3.702;2023-09-30T13:01:21;24.40;56.10
36690;DHT22;22676;51.120;3.702;2023-09-30T13:03:48;24.40;56.00
36690;DHT22;22676;51.120;3.702;2023-09-30T13:06:14;24.40;55.90
36690;DHT22;22676;51.120;3.702;2023-09-30T13:08:41;24.40;55.90
36690;DHT22;22676;51.120;3.702;2023-09-30T13:11:07;24.50;56.00
36690;DHT22;22676;51.120;3.702;2023-09-30T13:13:33;24.50;56.00
36690;DHT22;22676;51.120;3.702;2023-09-30T13:16:01;24.50;55.80
36690;DHT22;22676;51.120;3.702;2023-09-30T13:18:27;24.60;55.90
36690;DHT22;22676;51.120;3.702;2023-09-30T13:20:53;24.60;55.90
36690;DHT22;22676;51.120;3.702;2023-09-30T13:23:19;24.60;55.80
36690;DHT22;22676;51.120;3.702;2023-09-30T13:25:45;24.60;55.80
36690;DHT22;22676;51.120;3.702;2023-09-30T13:28:11;24.70;55.60
36690;DHT22;22676;51.120;3.702;2023-09-30T13:30:37;24.70;55.50
36690;DHT22;22676;51.120;3.702;2023-09-30T13:33:03;24.70;55.50
36690;DHT22;22676;51.120;3.702;2023-09-30T13:35:29;24.70;55.50
36690;DHT22;22676;51.120;3.702;2023-09-30T13:37:55;24.70;55.60
36690;DHT22;22676;51.120;3.702;2023-09-30T13:40:20;24.80;55.60
36690;DHT22;22676;51.120;3.702;2023-09-30T13:42:46;24.70;55.60
36690;DHT22;22676;51.120;3.702;2023-09-30T13:45:12;24.70;55.60
36690;DHT22;22676;51.120;3.702;2023-09-30T13:47:38;24.70;55.60
36690;DHT22;22676;51.120;3.702;2023-09-30T13:50:04;24.80;55.60
36690;DHT22;22676;51.120;3.702;2023-09-30T13:52:35;24.80;55.70
36690;DHT22;22676;51.120;3.702;2023-09-30T13:55:02;24.80;55.60
36690;DHT22;22676;51.120;3.702;2023-09-30T13:57:28;24.80;55.60
36690;DHT22;22676;51.120;3.702;2023-09-30T13:59:55;24.80;55.60
36690;DHT22;22676;51.120;3.702;2023-09-30T14:02:20;24.80;55.70
36690;DHT22;22676;51.120;3.702;2023-09-30T14:04:46;24.80;55.60
36690;DHT22;22676;51.120;3.702;2023-09-30T14:07:12;24.80;55.60
36690;DHT22;22676;51.120;3.702;2023-09-30T14:09:37;24.90;55.50
36690;DHT22;22676;51.120;3.702;2023-09-30T14:12:03;24.90;55.40
36690;DHT22;22676;51.120;3.702;2023-09-30T14:14:33;24.90;55.50
36690;DHT22;22676;51.120;3.702;2023-09-30T14:16:59;24.90;55.40
36690;DHT22;22676;51.120;3.702;2023-09-30T14:19:25;24.90;55.60
36690;DHT22;22676;51.120;3.702;2023-09-30T14:21:51;24.90;55.60
36690;DHT22;22676;51.120;3.702;2023-09-30T14:24:17;24.80;55.30
36690;DHT22;22676;51.120;3.702;2023-09-30T14:26:43;24.90;55.60
36690;DHT22;22676;51.120;3.702;2023-09-30T14:29:10;24.90;55.30
36690;DHT22;22676;51.120;3.702;2023-09-30T14:31:38;25.00;55.50
36690;DHT22;22676;51.120;3.702;2023-09-30T14:34:03;25.00;56.20
36690;DHT22;22676;51.120;3.702;2023-09-30T14:36:30;25.00;56.20
36690;DHT22;22676;51.120;3.702;2023-09-30T14:38:58;25.00;56.30
36690;DHT22;22676;51.120;3.702;2023-09-30T14:41:24;25.00;56.50
36690;DHT22;22676;51.120;3.702;2023-09-30T14:43:50;25.00;56.40
36690;DHT22;22676;51.120;3.702;2023-09-30T14:46:15;25.00;56.50
36690;DHT22;22676;51.120;3.702;2023-09-30T14:48:41;24.90;56.70
36690;DHT22;22676;51.120;3.702;2023-09-30T14:51:07;25.00;56.90
36690;DHT22;22676;51.120;3.702;2023-09-30T14:53:33;25.00;56.80
36690;DHT22;22676;51.120;3.702;2023-09-30T14:55:59;25.00;56.80
36690;DHT22;22676;51.120;3.702;2023-09-30T14:58:25;25.00;56.80
36690;DHT22;22676;51.120;3.702;2023-09-30T15:00:50;25.00;56.60
36690;DHT22;22676;51.120;3.702;2023-09-30T15:03:16;25.00;56.50
36690;DHT22;22676;51.120;3.702;2023-09-30T15:05:42;25.00;56.50
36690;DHT22;22676;51.120;3.702;2023-09-30T15:08:07;24.90;56.30
36690;DHT22;22676;51.120;3.702;2023-09-30T15:10:36;24.90;56.50
36690;DHT22;22676;51.120;3.702;2023-09-30T15:13:02;24.90;56.50
36690;DHT22;22676;51.120;3.702;2023-09-30T15:15:29;24.90;56.40
36690;DHT22;22676;51.120;3.702;2023-09-30T15:17:55;24.90;56.40
36690;DHT22;22676;51.120;3.702;2023-09-30T15:20:20;25.00;56.30
36690;DHT22;22676;51.120;3.702;2023-09-30T15:22:46;24.90;56.30
36690;DHT22;22676;51.120;3.702;2023-09-30T15:25:12;24.90;56.40
36690;DHT22;22676;51.120;3.702;2023-09-30T15:27:38;24.90;56.10
36690;DHT22;22676;51.120;3.702;2023-09-30T15:30:04;25.00;56.10
36690;DHT22;22676;51.120;3.702;2023-09-30T15:32:31;25.00;55.80
36690;DHT22;22676;51.120;3.702;2023-09-30T15:34:57;25.00;55.80
36690;DHT22;22676;51.120;3.702;2023-09-30T15:37:23;24.90;55.70
36690;DHT22;22676;51.120;3.702;2023-09-30T15:39:48;24.90;55.80
36690;DHT22;22676;51.120;3.702;2023-09-30T15:42:14;24.90;55.90
36690;DHT22;22676;51.120;3.702;2023-09-30T15:44:40;24.90;55.90
36690;DHT22;22676;51.120;3.702;2023-09-30T15:47:07;24.90;55.80
36690;DHT22;22676;51.120;3.702;2023-09-30T15:49:33;24.90;55.80
36690;DHT22;22676;51.120;3.702;2023-09-30T15:51:59;24.90;55.70
36690;DHT22;22676;51.120;3.702;2023-09-30T15:54:25;24.90;55.80
36690;DHT22;22676;51.120;3.702;2023-09-30T15:56:50;24.90;55.80
36690;DHT22;22676;51.120;3.702;2023-09-30T15:59:16;24.80;55.60
36690;DHT22;22676;51.120;3.702;2023-09-30T16:01:42;24.80;55.60
36690;DHT22;22676;51.120;3.702;2023-09-30T16:04:07;24.80;55.10
36690;DHT22;22676;51.120;3.702;2023-09-30T16:06:33;24.80;55.30
36690;DHT22;22676;51.120;3.702;2023-09-30T16:08:59;24.80;55.40
36690;DHT22;22676;51.120;3.702;2023-09-30T16:11:28;24.90;55.40
36690;DHT22;22676;51.120;3.702;2023-09-30T16:13:55;24.90;55.10
36690;DHT22;22676;51.120;3.702;2023-09-30T16:16:20;24.90;54.80
36690;DHT22;22676;51.120;3.702;2023-09-30T16:18:46;24.90;54.30
36690;DHT22;22676;51.120;3.702;2023-09-30T16:21:12;25.00;54.60
36690;DHT22;22676;51.120;3.702;2023-09-30T16:23:38;25.00;54.60
36690;DHT22;22676;51.120;3.702;2023-09-30T16:26:04;24.90;54.30
36690;DHT22;22676;51.120;3.702;2023-09-30T16:28:30;24.80;53.50
36690;DHT22;22676;51.120;3.702;2023-09-30T16:30:59;24.80;52.90
36690;DHT22;22676;51.120;3.702;2023-09-30T16:33:24;24.80;52.40
36690;DHT22;22676;51.120;3.702;2023-09-30T16:35:51;24.80;52.00
36690;DHT22;22676;51.120;3.702;2023-09-30T16:38:21;24.80;52.50
36690;DHT22;22676;51.120;3.702;2023-09-30T16:40:53;24.80;52.40
36690;DHT22;22676;51.120;3.702;2023-09-30T16:43:19;24.80;52.60
36690;DHT22;22676;51.120;3.702;2023-09-30T16:45:45;24.90;52.90
36690;DHT22;22676;51.120;3.702;2023-09-30T16:48:11;24.90;52.90
36690;DHT22;22676;51.120;3.702;2023-09-30T16:50:41;24.90;52.90
36690;DHT22;22676;51.120;3.702;2023-09-30T16:53:07;25.00;53.10
36690;DHT22;22676;51.120;3.702;2023-09-30T16:55:37;25.00;53.00
36690;DHT22;22676;51.120;3.702;2023-09-30T16:58:03;25.00;53.30
36690;DHT22;22676;51.120;3.702;2023-09-30T17:00:28;25.00;52.50
36690;DHT22;22676;51.120;3.702;2023-09-30T17:02:55;25.00;52.70
36690;DHT22;22676;51.120;3.702;2023-09-30T17:05:20;25.00;53.10
36690;DHT22;22676;51.120;3.702;2023-09-30T17:07:46;25.00;53.20
36690;DHT22;22676;51.120;3.702;2023-09-30T17:10:12;25.00;53.60
36690;DHT22;22676;51.120;3.702;2023-09-30T17:12:38;25.00;53.80
36690;DHT22;22676;51.120;3.702;2023-09-30T17:15:05;25.00;54.00
36690;DHT22;22676;51.120;3.702;2023-09-30T17:17:32;25.00;53.90
36690;DHT22;22676;51.120;3.702;2023-09-30T17:19:58;25.00;53.90
36690;DHT22;22676;51.120;3.702;2023-09-30T17:22:24;25.00;53.90
36690;DHT22;22676;51.120;3.702;2023-09-30T17:24:50;25.00;53.80
36690;DHT22;22676;51.120;3.702;2023-09-30T17:27:16;25.00;53.90
36690;DHT22;22676;51.120;3.702;2023-09-30T17:29:42;25.00;53.80
36690;DHT22;22676;51.120;3.702;2023-09-30T17:32:08;25.10;54.10
36690;DHT22;22676;51.120;3.702;2023-09-30T17:34:34;25.00;54.00
36690;DHT22;22676;51.120;3.702;2023-09-30T17:37:03;25.10;53.90
36690;DHT22;22676;51.120;3.702;2023-09-30T17:39:29;25.10;54.10
36690;DHT22;22676;51.120;3.702;2023-09-30T17:41:56;25.10;54.00
36690;DHT22;22676;51.120;3.702;2023-09-30T17:44:22;25.10;54.10
36690;DHT22;22676;51.120;3.702;2023-09-30T17:46:48;25.00;54.10
36690;DHT22;22676;51.120;3.702;2023-09-30T17:49:14;25.00;54.10
36690;DHT22;22676;51.120;3.702;2023-09-30T17:51:40;25.00;54.10
36690;DHT22;22676;51.120;3.702;2023-09-30T17:54:07;25.00;54.10
36690;DHT22;22676;51.120;3.702;2023-09-30T17:56:34;25.00;54.10
36690;DHT22;22676;51.120;3.702;2023-09-30T17:59:00;25.00;54.20
36690;DHT22;22676;51.120;3.702;2023-09-30T18:01:25;25.00;54.30
36690;DHT22;22676;51.120;3.702;2023-09-30T18:03:51;25.00;54.30
36690;DHT22;22676;51.120;3.702;2023-09-30T18:06:18;25.00;54.10
36690;DHT22;22676;51.120;3.702;2023-09-30T18:08:45;25.10;54.20
36690;DHT22;22676;51.120;3.702;2023-09-30T18:11:12;25.10;54.30
36690;DHT22;22676;51.120;3.702;2023-09-30T18:13:39;25.10;54.20
36690;DHT22;22676;51.120;3.702;2023-09-30T18:16:05;25.10;54.30
36690;DHT22;22676;51.120;3.702;2023-09-30T18:18:34;25.10;54.60
36690;DHT22;22676;51.120;3.702;2023-09-30T18:21:00;25.10;54.50
36690;DHT22;22676;51.120;3.702;2023-09-30T18:23:26;25.10;54.60
36690;DHT22;22676;51.120;3.702;2023-09-30T18:25:52;25.10;54.70
36690;DHT22;22676;51.120;3.702;2023-09-30T18:28:18;25.10;54.70
36690;DHT22;22676;51.120;3.702;2023-09-30T18:30:44;25.10;54.70
36690;DHT22;22676;51.120;3.702;2023-09-30T18:33:12;25.20;54.80
36690;DHT22;22676;51.120;3.702;2023-09-30T18:35:42;25.20;54.70
36690;DHT22;22676;51.120;3.702;2023-09-30T18:38:08;25.40;54.60
36690;DHT22;22676;51.120;3.702;2023-09-30T18:40:35;25.40;54.50
36690;DHT22;22676;51.120;3.702;2023-09-30T18:43:07;25.50;54.30
36690;DHT22;22676;51.120;3.702;2023-09-30T18:45:39;25.60;54.10
36690;DHT22;22676;51.120;3.702;2023-09-30T18:48:05;25.60;53.80
36690;DHT22;22676;51.120;3.702;2023-09-30T18:50:37;25.80;53.70
36690;DHT22;22676;51.120;3.702;2023-09-30T18:53:03;25.80;53.50
36690;DHT22;22676;51.120;3.702;2023-09-30T18:55:28;25.80;53.50
36690;DHT22;22676;51.120;3.702;2023-09-30T18:57:54;25.90;53.30
36690;DHT22;22676;51.120;3.702;2023-09-30T19:00:19;26.00;53.30
36690;DHT22;22676;51.120;3.702;2023-09-30T19:02:45;26.10;52.90
36690;DHT22;22676;51.120;3.702;2023-09-30T19:05:11;26.20;52.40
36690;DHT22;22676;51.120;3.702;2023-09-30T19:07:38;26.30;51.90
36690;DHT22;22676;51.120;3.702;2023-09-30T19:10:09;26.30;52.00
36690;DHT22;22676;51.120;3.702;2023-09-30T19:12:35;26.40;52.00
36690;DHT22;22676;51.120;3.702;2023-09-30T19:15:01;26.40;52.00
36690;DHT22;22676;51.120;3.702;2023-09-30T19:17:26;26.40;52.00
36690;DHT22;22676;51.120;3.702;2023-09-30T19:19:52;26.50;51.90
36690;DHT22;22676;51.120;3.702;2023-09-30T19:22:18;26.50;51.80
36690;DHT22;22676;51.120;3.702;2023-09-30T19:24:44;26.60;51.70
36690;DHT22;22676;51.120;3.702;2023-09-30T19:27:10;26.70;51.50
36690;DHT22;22676;51.120;3.702;2023-09-30T19:29:36;26.70;51.60
36690;DHT22;22676;51.120;3.702;2023-09-30T19:32:02;26.70;51.60
36690;DHT22;22676;51.120;3.702;2023-09-30T19:34:29;26.70;51.60
36690;DHT22;22676;51.120;3.702;2023-09-30T19:36:55;26.70;51.50
36690;DHT22;22676;51.120;3.702;2023-09-30T19:39:21;26.70;51.50
36690;DHT22;22676;51.120;3.702;2023-09-30T19:41:48;26.50;51.50
36690;DHT22;22676;51.120;3.702;2023-09-30T19:44:14;26.60;51.60
36690;DHT22;22676;51.120;3.702;2023-09-30T19:46:40;26.60;51.70
36690;DHT22;22676;51.120;3.702;2023-09-30T19:49:06;26.60;51.70
36690;DHT22;22676;51.120;3.702;2023-09-30T19:51:31;26.70;51.70
36690;DHT22;22676;51.120;3.702;2023-09-30T19:53:57;26.70;51.50
36690;DHT22;22676;51.120;3.702;2023-09-30T19:56:22;26.70;51.40
36690;DHT22;22676;51.120;3.702;2023-09-30T19:58:49;26.70;51.70
36690;DHT22;22676;51.120;3.702;2023-09-30T20:01:14;26.80;51.70
36690;DHT22;22676;51.120;3.702;2023-09-30T20:03:43;26.90;51.30
36690;DHT22;22676;51.120;3.702;2023-09-30T20:06:19;26.90;51.00
36690;DHT22;22676;51.120;3.702;2023-09-30T20:08:47;26.90;50.90
36690;DHT22;22676;51.120;3.702;2023-09-30T20:11:31;26.80;51.40
36690;DHT22;22676;51.120;3.702;2023-09-30T20:13:59;26.90;51.90
36690;DHT22;22676;51.120;3.702;2023-09-30T20:16:25;26.90;51.30
36690;DHT22;22676;51.120;3.702;2023-09-30T20:18:50;26.90;51.30
36690;DHT22;22676;51.120;3.702;2023-09-30T20:21:16;26.90;51.40
36690;DHT22;22676;51.120;3.702;2023-09-30T20:23:42;26.90;51.50
36690;DHT22;22676;51.120;3.702;2023-09-30T20:26:09;26.90;51.60
36690;DHT22;22676;51.120;3.702;2023-09-30T20:28:42;26.90;51.60
36690;DHT22;22676;51.120;3.702;2023-09-30T20:31:08;26.90;51.60
36690;DHT22;22676;51.120;3.702;2023-09-30T20:33:34;26.80;51.70
36690;DHT22;22676;51.120;3.702;2023-09-30T20:36:00;26.80;51.80
36690;DHT22;22676;51.120;3.702;2023-09-30T20:38:28;26.70;51.80
36690;DHT22;22676;51.120;3.702;2023-09-30T20:40:53;26.80;52.00
36690;DHT22;22676;51.120;3.702;2023-09-30T20:43:19;26.80;52.00
36690;DHT22;22676;51.120;3.702;2023-09-30T20:45:45;26.80;51.90
36690;DHT22;22676;51.120;3.702;2023-09-30T20:48:10;26.90;52.00
36690;DHT22;22676;51.120;3.702;2023-09-30T20:50:36;27.00;51.80
36690;DHT22;22676;51.120;3.702;2023-09-30T20:53:02;27.00;51.70
36690;DHT22;22676;51.120;3.702;2023-09-30T20:55:32;26.90;51.50
36690;DHT22;22676;51.120;3.702;2023-09-30T20:57:59;27.00;51.50
36690;DHT22;22676;51.120;3.702;2023-09-30T21:00:24;27.00;52.00
36690;DHT22;22676;51.120;3.702;2023-09-30T21:02:50;26.90;51.50
36690;DHT22;22676;51.120;3.702;2023-09-30T21:05:16;26.90;50.90
36690;DHT22;22676;51.120;3.702;2023-09-30T21:07:42;26.90;50.90
36690;DHT22;22676;51.120;3.702;2023-09-30T21:10:08;27.00;51.00
36690;DHT22;22676;51.120;3.702;2023-09-30T21:12:33;26.90;51.20
36690;DHT22;22676;51.120;3.702;2023-09-30T21:14:59;26.90;51.30
36690;DHT22;22676;51.120;3.702;2023-09-30T21:17:25;26.80;51.40
36690;DHT22;22676;51.120;3.702;2023-09-30T21:19:51;26.80;51.50
36690;DHT22;22676;51.120;3.702;2023-09-30T21:22:17;26.80;51.50
36690;DHT22;22676;51.120;3.702;2023-09-30T21:24:43;26.70;51.50
36690;DHT22;22676;51.120;3.702;2023-09-30T21:27:09;26.70;51.50
36690;DHT22;22676;51.120;3.702;2023-09-30T21:29:35;26.70;51.50
36690;DHT22;22676;51.120;3.702;2023-09-30T21:32:00;26.70;51.60
36690;DHT22;22676;51.120;3.702;2023-09-30T21:34:27;26.70;51.60
36690;DHT22;22676;51.120;3.702;2023-09-30T21:36:53;26.70;51.60
36690;DHT22;22676;51.120;3.702;2023-09-30T21:39:18;26.70;51.60
36690;DHT22;22676;51.120;3.702;2023-09-30T21:41:44;26.70;51.60
36690;DHT22;22676;51.120;3.702;2023-09-30T21:44:10;26.70;51.50
36690;DHT22;22676;51.120;3.702;2023-09-30T21:46:38;26.70;51.60